NCAR-RAP Real-Time Weather Data

Output produced by METARs form (08 May 2021  01:27 UTC)
found at http://weather.rap.ucar.edu/surface/
 
KDAY 080056Z COR 30007KT 5SM -RA FEW020 BKN043 OVC050 09/05 A2995 RMK AO2 RAB22 SLP144 P0010 T00940050 $
KDAY 080054Z 31007KT 6SM -RA FEW022 BKN041 OVC049 09/05 A2995 RMK AO2 RAB22 TSB15E48 TS DSIPT P0010 $
KDAY 080015Z 22007KT 10SM TS OVC060CB 11/06 A2992 RMK AO2 TSB15 OCNL LTGIC W-NW TS W-NW MOV E T01110056
KDAY 072356Z 21007KT 10SM BKN070 BKN100 11/06 A2992 RMK AO2 RAE10 SLP135 P0000 60001 T01110056 10167 20111 56009
KDAY 072256Z 25020G26KT 7SM -RA BKN048 OVC070 12/04 A2994 RMK AO2 PK WND 26026/2252 RAB44 SLP142 P0000 T01170044
KDAY 072156Z 30008KT 10SM FEW070 SCT090 BKN110 14/04 A2993 RMK AO2 LTG DSNT N RAE34 SLP137 P0001 T01390044
KDAY 072056Z 29017G25KT 4SM -RA SCT050 BKN065 OVC085 13/03 A2995 RMK AO2 RAB52 CIG 050 RWY 6L SLP144 P0000 60000 T01330028 56018
KDAY 071956Z 25010G19KT 10SM FEW029 SCT060 SCT100 15/03 A2996 RMK AO2 RAB03E10B32E39 SLP145 P0000 T01500028
KDAY 071856Z 27013G18KT 10SM FEW048 BKN070 OVC100 14/02 A2998 RMK AO2 RAB17E40 SLP154 BINOVC NW P0000 T01390022
KDAY 071756Z 27008KT 10SM SCT042 BKN055 BKN070 14/03 A3001 RMK AO2 SLP162 T01440028 10150 20061 58012
KDAY 071656Z 31008KT 10SM SCT034 SCT041 SCT050 13/03 A3003 RMK AO2 SLP171 T01330028
KDAY 071556Z 30005KT 10SM FEW018 FEW023 FEW050 12/02 A3004 RMK AO2 SLP173 T01170022
KDAY 071456Z 30005KT 10SM FEW013 FEW018 FEW050 11/04 A3004 RMK AO2 SLP175 T01060044 53001
KDAY 071356Z 35008KT 10SM SCT010 SCT015 09/03 A3004 RMK AO2 SLP175 T00890033
KDAY 071351Z 34007KT 10SM SCT010 SCT015 09/03 A3004 RMK AO2
KDAY 071256Z 33009KT 10SM BKN010 07/03 A3004 RMK AO2 CIG 008V014 SLP175 T00720028
KDAY 071248Z 31008KT 10SM BKN010 07/03 A3004 RMK AO2 CIG 008V013 T00720028
KDAY 071203Z 31010KT 10SM FEW007 06/03 A3003 RMK AO2 T00610028
KDAY 071156Z 31009KT 10SM FEW010 06/03 A3002 RMK AO2 SLP169 60002 70035 T00610028 10089 20050 53017
KDAY 071056Z 31008KT 10SM CLR 05/02 A3000 RMK AO2 SLP161 T00500017
KDAY 070956Z 32011KT 10SM FEW021 06/02 A2999 RMK AO2 SLP155 T00560017